sensor_id;sensor_type;location;lat;lon;timestamp;temperature;humidity
13322;DHT22;6730;46.248;6.930;2024-02-21T00:02:18;5.70;99.90
13322;DHT22;6730;46.248;6.930;2024-02-21T00:04:44;5.70;99.90
13322;DHT22;6730;46.248;6.930;2024-02-21T00:07:09;5.60;99.90
13322;DHT22;6730;46.248;6.930;2024-02-21T00:09:35;5.70;99.90
13322;DHT22;6730;46.248;6.930;2024-02-21T00:12:00;5.70;99.90
13322;DHT22;6730;46.248;6.930;2024-02-21T00:14:27;5.60;99.90
13322;DHT22;6730;46.248;6.930;2024-02-21T00:16:52;5.60;99.90
13322;DHT22;6730;46.248;6.930;2024-02-21T00:19:18;5.70;99.90
13322;DHT22;6730;46.248;6.930;2024-02-21T00:21:44;5.90;99.90
13322;DHT22;6730;46.248;6.930;2024-02-21T00:24:10;5.90;99.90
13322;DHT22;6730;46.248;6.930;2024-02-21T00:26:35;5.80;99.90
13322;DHT22;6730;46.248;6.930;2024-02-21T00:29:01;5.80;99.90
13322;DHT22;6730;46.248;6.930;2024-02-21T00:31:27;5.70;99.90
13322;DHT22;6730;46.248;6.930;2024-02-21T00:33:52;5.80;99.90
13322;DHT22;6730;46.248;6.930;2024-02-21T00:36:18;5.80;99.90
13322;DHT22;6730;46.248;6.930;2024-02-21T00:38:44;5.90;99.90
13322;DHT22;6730;46.248;6.930;2024-02-21T00:41:10;5.80;99.90
13322;DHT22;6730;46.248;6.930;2024-02-21T00:43:35;5.70;99.90
13322;DHT22;6730;46.248;6.930;2024-02-21T00:46:01;5.40;99.90
13322;DHT22;6730;46.248;6.930;2024-02-21T00:48:27;5.60;99.90
13322;DHT22;6730;46.248;6.930;2024-02-21T00:50:52;5.40;99.90
13322;DHT22;6730;46.248;6.930;2024-02-21T00:53:18;5.60;99.90
13322;DHT22;6730;46.248;6.930;2024-02-21T00:55:43;5.80;99.90
13322;DHT22;6730;46.248;6.930;2024-02-21T00:58:09;5.90;99.90
13322;DHT22;6730;46.248;6.930;2024-02-21T01:00:35;5.90;99.90
13322;DHT22;6730;46.248;6.930;2024-02-21T01:03:01;5.30;99.90
13322;DHT22;6730;46.248;6.930;2024-02-21T01:05:27;5.00;99.90
13322;DHT22;6730;46.248;6.930;2024-02-21T01:07:54;5.20;99.90
13322;DHT22;6730;46.248;6.930;2024-02-21T01:10:20;5.50;99.90
13322;DHT22;6730;46.248;6.930;2024-02-21T01:12:45;5.20;99.90
13322;DHT22;6730;46.248;6.930;2024-02-21T01:15:11;5.50;99.90
13322;DHT22;6730;46.248;6.930;2024-02-21T01:17:37;5.70;99.90
13322;DHT22;6730;46.248;6.930;2024-02-21T01:20:03;5.70;99.90
13322;DHT22;6730;46.248;6.930;2024-02-21T01:22:31;5.80;99.90
13322;DHT22;6730;46.248;6.930;2024-02-21T01:24:56;5.80;99.90
13322;DHT22;6730;46.248;6.930;2024-02-21T01:27:22;5.70;99.90
13322;DHT22;6730;46.248;6.930;2024-02-21T01:29:48;5.70;99.90
13322;DHT22;6730;46.248;6.930;2024-02-21T01:32:15;5.50;99.90
13322;DHT22;6730;46.248;6.930;2024-02-21T01:34:41;5.40;99.90
13322;DHT22;6730;46.248;6.930;2024-02-21T01:37:06;5.60;99.90
13322;DHT22;6730;46.248;6.930;2024-02-21T01:39:33;5.70;99.90
13322;DHT22;6730;46.248;6.930;2024-02-21T01:41:59;5.70;99.90
13322;DHT22;6730;46.248;6.930;2024-02-21T01:44:25;5.80;99.90
13322;DHT22;6730;46.248;6.930;2024-02-21T01:46:52;5.90;99.90
13322;DHT22;6730;46.248;6.930;2024-02-21T01:49:19;5.90;99.90
13322;DHT22;6730;46.248;6.930;2024-02-21T01:51:45;5.90;99.90
13322;DHT22;6730;46.248;6.930;2024-02-21T01:54:11;5.70;99.90
13322;DHT22;6730;46.248;6.930;2024-02-21T01:56:38;5.60;99.90
13322;DHT22;6730;46.248;6.930;2024-02-21T01:59:04;5.80;99.90
13322;DHT22;6730;46.248;6.930;2024-02-21T02:01:30;5.70;99.90
13322;DHT22;6730;46.248;6.930;2024-02-21T02:03:56;5.70;99.90
13322;DHT22;6730;46.248;6.930;2024-02-21T02:06:22;5.80;99.90
13322;DHT22;6730;46.248;6.930;2024-02-21T02:08:48;5.80;99.90
13322;DHT22;6730;46.248;6.930;2024-02-21T02:11:14;5.80;99.90
13322;DHT22;6730;46.248;6.930;2024-02-21T02:13:40;5.70;99.90
13322;DHT22;6730;46.248;6.930;2024-02-21T02:16:06;5.70;99.90
13322;DHT22;6730;46.248;6.930;2024-02-21T02:18:32;5.80;99.90
13322;DHT22;6730;46.248;6.930;2024-02-21T02:20:58;5.90;99.90
13322;DHT22;6730;46.248;6.930;2024-02-21T02:23:31;5.80;99.90
13322;DHT22;6730;46.248;6.930;2024-02-21T02:25:57;5.60;99.90
13322;DHT22;6730;46.248;6.930;2024-02-21T02:28:23;5.70;99.90
13322;DHT22;6730;46.248;6.930;2024-02-21T02:57:45;5.80;99.90
13322;DHT22;6730;46.248;6.930;2024-02-21T03:00:12;6.10;99.90
13322;DHT22;6730;46.248;6.930;2024-02-21T03:02:39;5.90;99.90
13322;DHT22;6730;46.248;6.930;2024-02-21T03:05:15;5.70;99.90
13322;DHT22;6730;46.248;6.930;2024-02-21T03:07:41;5.50;99.90
13322;DHT22;6730;46.248;6.930;2024-02-21T03:10:08;5.50;99.90
13322;DHT22;6730;46.248;6.930;2024-02-21T03:12:34;5.50;99.90
13322;DHT22;6730;46.248;6.930;2024-02-21T03:15:00;5.40;99.90
13322;DHT22;6730;46.248;6.930;2024-02-21T03:17:25;5.40;99.90
13322;DHT22;6730;46.248;6.930;2024-02-21T03:19:54;5.30;99.90
13322;DHT22;6730;46.248;6.930;2024-02-21T03:22:21;5.30;99.90
13322;DHT22;6730;46.248;6.930;2024-02-21T03:24:47;5.20;99.90
13322;DHT22;6730;46.248;6.930;2024-02-21T03:27:12;5.20;99.90
13322;DHT22;6730;46.248;6.930;2024-02-21T03:29:38;5.00;99.90
13322;DHT22;6730;46.248;6.930;2024-02-21T03:32:04;4.90;99.90
13322;DHT22;6730;46.248;6.930;2024-02-21T03:34:30;4.90;99.90
13322;DHT22;6730;46.248;6.930;2024-02-21T03:36:55;4.90;99.90
13322;DHT22;6730;46.248;6.930;2024-02-21T03:39:21;5.00;99.90
13322;DHT22;6730;46.248;6.930;2024-02-21T03:41:47;5.00;99.90
13322;DHT22;6730;46.248;6.930;2024-02-21T03:44:13;5.30;99.90
13322;DHT22;6730;46.248;6.930;2024-02-21T03:46:38;5.50;99.90
13322;DHT22;6730;46.248;6.930;2024-02-21T03:49:04;5.50;99.90
13322;DHT22;6730;46.248;6.930;2024-02-21T03:51:29;5.40;99.90
13322;DHT22;6730;46.248;6.930;2024-02-21T03:53:55;5.60;99.90
13322;DHT22;6730;46.248;6.930;2024-02-21T03:56:21;5.90;99.90
13322;DHT22;6730;46.248;6.930;2024-02-21T03:58:46;5.70;99.90
13322;DHT22;6730;46.248;6.930;2024-02-21T04:01:14;5.60;99.90
13322;DHT22;6730;46.248;6.930;2024-02-21T04:03:40;5.60;99.90
13322;DHT22;6730;46.248;6.930;2024-02-21T04:06:06;5.50;99.90
13322;DHT22;6730;46.248;6.930;2024-02-21T04:08:31;5.30;99.90
13322;DHT22;6730;46.248;6.930;2024-02-21T04:10:57;5.30;99.90
13322;DHT22;6730;46.248;6.930;2024-02-21T04:13:22;5.60;99.90
13322;DHT22;6730;46.248;6.930;2024-02-21T04:15:48;5.50;99.90
13322;DHT22;6730;46.248;6.930;2024-02-21T04:18:14;5.40;99.90
13322;DHT22;6730;46.248;6.930;2024-02-21T04:20:40;5.30;99.90
13322;DHT22;6730;46.248;6.930;2024-02-21T04:23:06;5.20;99.90
13322;DHT22;6730;46.248;6.930;2024-02-21T04:25:32;5.20;99.90
13322;DHT22;6730;46.248;6.930;2024-02-21T04:27:57;5.20;99.90
13322;DHT22;6730;46.248;6.930;2024-02-21T04:30:23;5.10;99.90
13322;DHT22;6730;46.248;6.930;2024-02-21T04:32:49;4.90;99.90
13322;DHT22;6730;46.248;6.930;2024-02-21T04:35:14;4.80;99.90
13322;DHT22;6730;46.248;6.930;2024-02-21T04:37:40;4.70;99.90
13322;DHT22;6730;46.248;6.930;2024-02-21T04:40:06;4.60;99.90
13322;DHT22;6730;46.248;6.930;2024-02-21T04:42:32;4.50;99.90
13322;DHT22;6730;46.248;6.930;2024-02-21T04:44:58;4.60;99.90
13322;DHT22;6730;46.248;6.930;2024-02-21T04:47:24;4.70;99.90
13322;DHT22;6730;46.248;6.930;2024-02-21T04:49:50;4.80;99.90
13322;DHT22;6730;46.248;6.930;2024-02-21T04:52:16;4.80;99.90
13322;DHT22;6730;46.248;6.930;2024-02-21T04:54:41;4.70;99.90
13322;DHT22;6730;46.248;6.930;2024-02-21T04:57:07;4.70;99.90
13322;DHT22;6730;46.248;6.930;2024-02-21T04:59:33;4.70;99.90
13322;DHT22;6730;46.248;6.930;2024-02-21T05:02:00;4.80;99.90
13322;DHT22;6730;46.248;6.930;2024-02-21T05:04:26;4.80;99.90
13322;DHT22;6730;46.248;6.930;2024-02-21T05:06:51;4.90;99.90
13322;DHT22;6730;46.248;6.930;2024-02-21T05:09:17;5.20;99.90
13322;DHT22;6730;46.248;6.930;2024-02-21T05:11:42;5.20;99.90
13322;DHT22;6730;46.248;6.930;2024-02-21T05:14:08;5.20;99.90
13322;DHT22;6730;46.248;6.930;2024-02-21T05:16:34;5.00;99.90
13322;DHT22;6730;46.248;6.930;2024-02-21T05:18:59;4.70;99.90
13322;DHT22;6730;46.248;6.930;2024-02-21T05:21:25;4.50;99.90
13322;DHT22;6730;46.248;6.930;2024-02-21T05:23:51;4.60;99.90
13322;DHT22;6730;46.248;6.930;2024-02-21T05:26:21;4.50;99.90
13322;DHT22;6730;46.248;6.930;2024-02-21T05:28:47;4.60;99.90
13322;DHT22;6730;46.248;6.930;2024-02-21T05:31:13;4.60;99.90
13322;DHT22;6730;46.248;6.930;2024-02-21T05:33:39;4.90;99.90
13322;DHT22;6730;46.248;6.930;2024-02-21T05:36:05;4.90;99.90
13322;DHT22;6730;46.248;6.930;2024-02-21T05:38:31;5.00;99.90
13322;DHT22;6730;46.248;6.930;2024-02-21T05:40:57;5.00;99.90
13322;DHT22;6730;46.248;6.930;2024-02-21T05:43:23;5.20;99.90
13322;DHT22;6730;46.248;6.930;2024-02-21T05:45:49;5.30;99.90
13322;DHT22;6730;46.248;6.930;2024-02-21T05:48:14;5.60;99.90
13322;DHT22;6730;46.248;6.930;2024-02-21T05:50:40;5.80;99.90
13322;DHT22;6730;46.248;6.930;2024-02-21T05:53:05;5.60;99.90
13322;DHT22;6730;46.248;6.930;2024-02-21T05:55:31;5.20;99.90
13322;DHT22;6730;46.248;6.930;2024-02-21T05:57:57;5.00;99.90
13322;DHT22;6730;46.248;6.930;2024-02-21T06:00:22;4.80;99.90
13322;DHT22;6730;46.248;6.930;2024-02-21T06:02:48;4.70;99.90
13322;DHT22;6730;46.248;6.930;2024-02-21T06:05:14;4.50;99.90
13322;DHT22;6730;46.248;6.930;2024-02-21T06:07:39;4.40;99.90
13322;DHT22;6730;46.248;6.930;2024-02-21T06:10:06;4.30;99.90
13322;DHT22;6730;46.248;6.930;2024-02-21T06:12:31;4.20;99.90
13322;DHT22;6730;46.248;6.930;2024-02-21T06:14:57;4.30;99.90
13322;DHT22;6730;46.248;6.930;2024-02-21T06:17:23;4.40;99.90
13322;DHT22;6730;46.248;6.930;2024-02-21T06:19:48;4.40;99.90
13322;DHT22;6730;46.248;6.930;2024-02-21T06:22:14;4.50;99.90
13322;DHT22;6730;46.248;6.930;2024-02-21T06:24:40;4.50;99.90
13322;DHT22;6730;46.248;6.930;2024-02-21T06:27:06;4.60;99.90
13322;DHT22;6730;46.248;6.930;2024-02-21T06:29:32;4.70;99.90
13322;DHT22;6730;46.248;6.930;2024-02-21T06:31:58;4.80;99.90
13322;DHT22;6730;46.248;6.930;2024-02-21T06:34:24;4.80;99.90
13322;DHT22;6730;46.248;6.930;2024-02-21T06:36:50;4.90;99.90
13322;DHT22;6730;46.248;6.930;2024-02-21T06:39:16;4.90;99.90
13322;DHT22;6730;46.248;6.930;2024-02-21T06:41:42;4.90;99.90
13322;DHT22;6730;46.248;6.930;2024-02-21T06:44:08;5.20;99.90
13322;DHT22;6730;46.248;6.930;2024-02-21T06:46:33;5.30;99.90
13322;DHT22;6730;46.248;6.930;2024-02-21T06:48:59;5.20;99.90
13322;DHT22;6730;46.248;6.930;2024-02-21T06:51:26;5.20;99.90
13322;DHT22;6730;46.248;6.930;2024-02-21T06:53:52;5.40;99.90
13322;DHT22;6730;46.248;6.930;2024-02-21T06:56:17;5.30;99.90
13322;DHT22;6730;46.248;6.930;2024-02-21T06:58:43;5.20;99.90
13322;DHT22;6730;46.248;6.930;2024-02-21T07:01:09;5.40;99.90
13322;DHT22;6730;46.248;6.930;2024-02-21T07:03:35;5.40;99.90
13322;DHT22;6730;46.248;6.930;2024-02-21T07:06:01;5.70;99.90
13322;DHT22;6730;46.248;6.930;2024-02-21T07:08:26;5.80;99.90
13322;DHT22;6730;46.248;6.930;2024-02-21T07:10:52;6.00;99.90
13322;DHT22;6730;46.248;6.930;2024-02-21T07:13:18;6.20;99.90
13322;DHT22;6730;46.248;6.930;2024-02-21T07:15:44;6.20;99.90
13322;DHT22;6730;46.248;6.930;2024-02-21T07:18:09;6.30;99.90
13322;DHT22;6730;46.248;6.930;2024-02-21T07:20:38;6.30;99.90
13322;DHT22;6730;46.248;6.930;2024-02-21T07:23:07;6.10;99.90
13322;DHT22;6730;46.248;6.930;2024-02-21T07:25:33;5.90;99.90
13322;DHT22;6730;46.248;6.930;2024-02-21T07:30:37;5.80;99.90
13322;DHT22;6730;46.248;6.930;2024-02-21T07:33:03;5.60;99.90
13322;DHT22;6730;46.248;6.930;2024-02-21T07:35:29;5.50;99.90
13322;DHT22;6730;46.248;6.930;2024-02-21T07:37:54;5.50;99.90
13322;DHT22;6730;46.248;6.930;2024-02-21T07:40:20;5.50;99.90
13322;DHT22;6730;46.248;6.930;2024-02-21T07:42:46;5.60;99.90
13322;DHT22;6730;46.248;6.930;2024-02-21T07:45:11;5.70;99.90
13322;DHT22;6730;46.248;6.930;2024-02-21T07:47:37;5.80;99.90
13322;DHT22;6730;46.248;6.930;2024-02-21T07:50:06;6.10;99.90
13322;DHT22;6730;46.248;6.930;2024-02-21T07:52:32;6.20;99.90
13322;DHT22;6730;46.248;6.930;2024-02-21T07:54:58;6.10;99.90
13322;DHT22;6730;46.248;6.930;2024-02-21T07:57:23;6.00;99.90
13322;DHT22;6730;46.248;6.930;2024-02-21T07:59:49;6.40;99.90
13322;DHT22;6730;46.248;6.930;2024-02-21T08:02:15;6.60;99.90
13322;DHT22;6730;46.248;6.930;2024-02-21T08:04:41;6.40;99.90
13322;DHT22;6730;46.248;6.930;2024-02-21T08:07:07;6.40;99.90
13322;DHT22;6730;46.248;6.930;2024-02-21T08:09:33;6.60;99.90
13322;DHT22;6730;46.248;6.930;2024-02-21T08:11:58;7.00;99.90
13322;DHT22;6730;46.248;6.930;2024-02-21T08:14:24;7.50;99.90
13322;DHT22;6730;46.248;6.930;2024-02-21T08:16:53;7.80;99.90
13322;DHT22;6730;46.248;6.930;2024-02-21T08:19:20;8.10;99.90
13322;DHT22;6730;46.248;6.930;2024-02-21T08:21:45;7.80;99.90
13322;DHT22;6730;46.248;6.930;2024-02-21T08:24:14;7.30;99.90
13322;DHT22;6730;46.248;6.930;2024-02-21T08:26:43;7.10;99.90
13322;DHT22;6730;46.248;6.930;2024-02-21T08:29:10;7.30;99.90
13322;DHT22;6730;46.248;6.930;2024-02-21T08:31:37;7.40;99.90
13322;DHT22;6730;46.248;6.930;2024-02-21T08:34:03;7.50;99.90
13322;DHT22;6730;46.248;6.930;2024-02-21T08:36:36;7.70;99.90
13322;DHT22;6730;46.248;6.930;2024-02-21T08:39:03;7.90;99.90
13322;DHT22;6730;46.248;6.930;2024-02-21T08:41:31;8.10;99.90
13322;DHT22;6730;46.248;6.930;2024-02-21T08:43:57;8.30;99.90
13322;DHT22;6730;46.248;6.930;2024-02-21T08:46:23;8.40;99.90
13322;DHT22;6730;46.248;6.930;2024-02-21T08:48:53;8.60;99.90
13322;DHT22;6730;46.248;6.930;2024-02-21T08:51:19;8.70;99.90
13322;DHT22;6730;46.248;6.930;2024-02-21T08:53:46;8.60;99.90
13322;DHT22;6730;46.248;6.930;2024-02-21T08:56:12;8.50;99.90
13322;DHT22;6730;46.248;6.930;2024-02-21T08:58:39;8.50;99.90
13322;DHT22;6730;46.248;6.930;2024-02-21T09:01:06;8.70;99.90
13322;DHT22;6730;46.248;6.930;2024-02-21T09:03:36;8.90;99.90
13322;DHT22;6730;46.248;6.930;2024-02-21T09:06:02;8.70;99.90
13322;DHT22;6730;46.248;6.930;2024-02-21T09:08:27;8.50;99.90
13322;DHT22;6730;46.248;6.930;2024-02-21T09:10:53;8.50;99.90
13322;DHT22;6730;46.248;6.930;2024-02-21T09:13:22;8.70;99.90
13322;DHT22;6730;46.248;6.930;2024-02-21T09:15:49;8.70;99.90
13322;DHT22;6730;46.248;6.930;2024-02-21T09:18:15;8.70;99.90
13322;DHT22;6730;46.248;6.930;2024-02-21T09:20:41;8.60;99.90
13322;DHT22;6730;46.248;6.930;2024-02-21T09:23:07;8.70;99.90
13322;DHT22;6730;46.248;6.930;2024-02-21T09:25:33;8.80;99.90
13322;DHT22;6730;46.248;6.930;2024-02-21T09:28:00;9.20;99.90
13322;DHT22;6730;46.248;6.930;2024-02-21T09:30:26;9.10;99.90
13322;DHT22;6730;46.248;6.930;2024-02-21T09:32:52;8.80;99.90
13322;DHT22;6730;46.248;6.930;2024-02-21T09:35:18;8.50;99.90
13322;DHT22;6730;46.248;6.930;2024-02-21T09:37:44;8.60;99.90
13322;DHT22;6730;46.248;6.930;2024-02-21T09:40:10;8.50;99.90
13322;DHT22;6730;46.248;6.930;2024-02-21T09:42:40;8.70;99.90
13322;DHT22;6730;46.248;6.930;2024-02-21T09:45:25;8.90;99.90
13322;DHT22;6730;46.248;6.930;2024-02-21T09:50:40;9.30;99.90
13322;DHT22;6730;46.248;6.930;2024-02-21T09:53:10;9.40;99.90
13322;DHT22;6730;46.248;6.930;2024-02-21T09:55:37;9.60;99.90
13322;DHT22;6730;46.248;6.930;2024-02-21T09:58:05;9.30;99.90
13322;DHT22;6730;46.248;6.930;2024-02-21T10:00:34;9.20;99.90
13322;DHT22;6730;46.248;6.930;2024-02-21T10:03:00;8.90;99.90
13322;DHT22;6730;46.248;6.930;2024-02-21T10:05:26;8.80;99.90
13322;DHT22;6730;46.248;6.930;2024-02-21T10:07:52;8.60;99.90
13322;DHT22;6730;46.248;6.930;2024-02-21T10:10:19;8.40;99.90
13322;DHT22;6730;46.248;6.930;2024-02-21T10:12:51;8.40;99.90
13322;DHT22;6730;46.248;6.930;2024-02-21T10:15:20;8.50;99.90
13322;DHT22;6730;46.248;6.930;2024-02-21T10:17:57;8.60;99.90
13322;DHT22;6730;46.248;6.930;2024-02-21T10:20:23;8.40;99.90
13322;DHT22;6730;46.248;6.930;2024-02-21T10:22:49;8.40;99.90
13322;DHT22;6730;46.248;6.930;2024-02-21T10:25:14;8.90;99.90
13322;DHT22;6730;46.248;6.930;2024-02-21T10:27:40;9.30;99.90
13322;DHT22;6730;46.248;6.930;2024-02-21T10:30:14;9.70;99.90
13322;DHT22;6730;46.248;6.930;2024-02-21T10:32:52;10.20;99.90
13322;DHT22;6730;46.248;6.930;2024-02-21T10:35:32;10.40;99.90
13322;DHT22;6730;46.248;6.930;2024-02-21T10:37:59;10.40;99.90
13322;DHT22;6730;46.248;6.930;2024-02-21T10:40:25;10.10;99.90
13322;DHT22;6730;46.248;6.930;2024-02-21T10:42:59;9.70;99.90
13322;DHT22;6730;46.248;6.930;2024-02-21T10:45:32;9.10;99.90
13322;DHT22;6730;46.248;6.930;2024-02-21T10:48:15;8.80;99.90
13322;DHT22;6730;46.248;6.930;2024-02-21T10:53:53;8.70;99.90
13322;DHT22;6730;46.248;6.930;2024-02-21T10:58:47;8.70;99.90
13322;DHT22;6730;46.248;6.930;2024-02-21T11:01:13;8.70;99.90
13322;DHT22;6730;46.248;6.930;2024-02-21T11:03:42;8.40;99.90
13322;DHT22;6730;46.248;6.930;2024-02-21T11:06:10;8.60;99.90
13322;DHT22;6730;46.248;6.930;2024-02-21T11:08:36;9.00;99.90
13322;DHT22;6730;46.248;6.930;2024-02-21T11:11:02;9.40;99.90
13322;DHT22;6730;46.248;6.930;2024-02-21T11:13:35;9.50;99.90
13322;DHT22;6730;46.248;6.930;2024-02-21T11:16:11;9.90;99.90
13322;DHT22;6730;46.248;6.930;2024-02-21T11:18:45;9.40;99.90
13322;DHT22;6730;46.248;6.930;2024-02-21T11:21:11;9.80;99.90
13322;DHT22;6730;46.248;6.930;2024-02-21T11:23:37;9.90;99.90
13322;DHT22;6730;46.248;6.930;2024-02-21T11:26:06;9.90;99.90
13322;DHT22;6730;46.248;6.930;2024-02-21T11:28:32;9.60;99.90
13322;DHT22;6730;46.248;6.930;2024-02-21T11:31:13;9.80;99.90
13322;DHT22;6730;46.248;6.930;2024-02-21T11:33:43;10.40;99.90
13322;DHT22;6730;46.248;6.930;2024-02-21T11:36:09;10.50;99.90
13322;DHT22;6730;46.248;6.930;2024-02-21T11:38:35;10.60;99.90
13322;DHT22;6730;46.248;6.930;2024-02-21T11:41:01;10.30;99.90
13322;DHT22;6730;46.248;6.930;2024-02-21T11:43:27;10.00;99.90
13322;DHT22;6730;46.248;6.930;2024-02-21T11:46:01;9.40;99.90
13322;DHT22;6730;46.248;6.930;2024-02-21T11:48:27;9.20;99.90
13322;DHT22;6730;46.248;6.930;2024-02-21T11:50:56;9.30;99.90
13322;DHT22;6730;46.248;6.930;2024-02-21T11:53:22;9.20;99.90
13322;DHT22;6730;46.248;6.930;2024-02-21T11:55:48;9.40;99.90
13322;DHT22;6730;46.248;6.930;2024-02-21T11:58:14;9.60;99.90
13322;DHT22;6730;46.248;6.930;2024-02-21T12:00:40;9.40;99.90
13322;DHT22;6730;46.248;6.930;2024-02-21T12:03:06;9.40;99.90
13322;DHT22;6730;46.248;6.930;2024-02-21T12:05:33;9.60;99.90
13322;DHT22;6730;46.248;6.930;2024-02-21T12:07:59;9.90;99.90
13322;DHT22;6730;46.248;6.930;2024-02-21T12:10:28;10.40;99.90
13322;DHT22;6730;46.248;6.930;2024-02-21T12:12:54;10.40;99.90
13322;DHT22;6730;46.248;6.930;2024-02-21T12:15:31;10.00;99.90
13322;DHT22;6730;46.248;6.930;2024-02-21T12:17:56;9.80;99.90
13322;DHT22;6730;46.248;6.930;2024-02-21T12:20:23;9.90;99.90
13322;DHT22;6730;46.248;6.930;2024-02-21T12:22:50;10.20;99.90
13322;DHT22;6730;46.248;6.930;2024-02-21T12:25:16;10.40;99.90
13322;DHT22;6730;46.248;6.930;2024-02-21T12:27:43;10.20;99.90
13322;DHT22;6730;46.248;6.930;2024-02-21T12:30:09;10.20;99.90
13322;DHT22;6730;46.248;6.930;2024-02-21T12:32:36;10.20;99.90
13322;DHT22;6730;46.248;6.930;2024-02-21T12:35:02;10.20;99.90
13322;DHT22;6730;46.248;6.930;2024-02-21T12:37:28;10.50;99.90
13322;DHT22;6730;46.248;6.930;2024-02-21T12:39:54;10.50;99.90
13322;DHT22;6730;46.248;6.930;2024-02-21T12:42:20;10.00;99.90
13322;DHT22;6730;46.248;6.930;2024-02-21T12:44:46;10.00;99.90
13322;DHT22;6730;46.248;6.930;2024-02-21T12:47:11;10.30;99.90
13322;DHT22;6730;46.248;6.930;2024-02-21T12:49:37;10.30;99.90
13322;DHT22;6730;46.248;6.930;2024-02-21T12:52:09;10.60;99.90
13322;DHT22;6730;46.248;6.930;2024-02-21T12:54:38;10.80;99.90
13322;DHT22;6730;46.248;6.930;2024-02-21T12:57:04;10.80;99.90
13322;DHT22;6730;46.248;6.930;2024-02-21T12:59:30;10.40;99.90
13322;DHT22;6730;46.248;6.930;2024-02-21T13:01:56;10.40;99.90
13322;DHT22;6730;46.248;6.930;2024-02-21T13:04:21;10.40;99.90
13322;DHT22;6730;46.248;6.930;2024-02-21T13:06:48;10.60;99.90
13322;DHT22;6730;46.248;6.930;2024-02-21T13:09:14;10.90;99.90
13322;DHT22;6730;46.248;6.930;2024-02-21T13:11:40;11.00;99.90
13322;DHT22;6730;46.248;6.930;2024-02-21T13:14:06;10.20;99.90
13322;DHT22;6730;46.248;6.930;2024-02-21T13:16:32;9.70;99.90
13322;DHT22;6730;46.248;6.930;2024-02-21T13:19:05;9.60;99.90
13322;DHT22;6730;46.248;6.930;2024-02-21T13:21:30;9.40;99.90
13322;DHT22;6730;46.248;6.930;2024-02-21T13:23:56;9.30;99.90
13322;DHT22;6730;46.248;6.930;2024-02-21T13:26:22;9.40;99.90
13322;DHT22;6730;46.248;6.930;2024-02-21T13:28:48;9.50;99.90
13322;DHT22;6730;46.248;6.930;2024-02-21T13:31:14;9.70;99.90
13322;DHT22;6730;46.248;6.930;2024-02-21T13:33:42;9.40;99.90
13322;DHT22;6730;46.248;6.930;2024-02-21T13:36:07;9.50;99.90
13322;DHT22;6730;46.248;6.930;2024-02-21T13:38:34;9.40;99.90
13322;DHT22;6730;46.248;6.930;2024-02-21T13:40:59;9.30;99.90
13322;DHT22;6730;46.248;6.930;2024-02-21T13:43:25;9.40;99.90
13322;DHT22;6730;46.248;6.930;2024-02-21T13:45:59;9.20;99.90
13322;DHT22;6730;46.248;6.930;2024-02-21T13:48:25;9.10;99.90
13322;DHT22;6730;46.248;6.930;2024-02-21T13:50:52;9.00;99.90
13322;DHT22;6730;46.248;6.930;2024-02-21T13:53:19;9.00;99.90
13322;DHT22;6730;46.248;6.930;2024-02-21T13:55:46;9.10;99.90
13322;DHT22;6730;46.248;6.930;2024-02-21T13:58:11;9.20;99.90
13322;DHT22;6730;46.248;6.930;2024-02-21T14:00:37;9.40;99.90
13322;DHT22;6730;46.248;6.930;2024-02-21T14:03:03;9.10;99.90
13322;DHT22;6730;46.248;6.930;2024-02-21T14:05:29;8.90;99.90
13322;DHT22;6730;46.248;6.930;2024-02-21T14:07:57;9.10;99.90
13322;DHT22;6730;46.248;6.930;2024-02-21T14:10:23;9.20;99.90
13322;DHT22;6730;46.248;6.930;2024-02-21T14:12:49;9.30;99.90
13322;DHT22;6730;46.248;6.930;2024-02-21T14:15:15;9.20;99.90
13322;DHT22;6730;46.248;6.930;2024-02-21T14:20:17;9.20;99.90
13322;DHT22;6730;46.248;6.930;2024-02-21T14:22:42;9.30;99.90
13322;DHT22;6730;46.248;6.930;2024-02-21T14:25:08;9.20;99.90
13322;DHT22;6730;46.248;6.930;2024-02-21T14:27:34;9.10;99.90
13322;DHT22;6730;46.248;6.930;2024-02-21T14:30:02;9.20;99.90
13322;DHT22;6730;46.248;6.930;2024-02-21T14:32:28;9.10;99.90
13322;DHT22;6730;46.248;6.930;2024-02-21T14:34:53;9.30;99.90
13322;DHT22;6730;46.248;6.930;2024-02-21T14:37:19;9.30;99.90
13322;DHT22;6730;46.248;6.930;2024-02-21T14:39:45;9.30;99.90
13322;DHT22;6730;46.248;6.930;2024-02-21T14:42:10;9.30;99.90
13322;DHT22;6730;46.248;6.930;2024-02-21T14:44:36;9.10;99.90
13322;DHT22;6730;46.248;6.930;2024-02-21T14:47:02;8.80;99.90
13322;DHT22;6730;46.248;6.930;2024-02-21T14:49:29;8.60;99.90
13322;DHT22;6730;46.248;6.930;2024-02-21T14:51:55;8.60;99.90
13322;DHT22;6730;46.248;6.930;2024-02-21T14:54:20;8.70;99.90
13322;DHT22;6730;46.248;6.930;2024-02-21T14:56:46;8.70;99.90
13322;DHT22;6730;46.248;6.930;2024-02-21T14:59:15;8.60;99.90
13322;DHT22;6730;46.248;6.930;2024-02-21T15:01:42;8.70;99.90
13322;DHT22;6730;46.248;6.930;2024-02-21T15:04:07;8.90;99.90
13322;DHT22;6730;46.248;6.930;2024-02-21T15:06:33;9.30;99.90
13322;DHT22;6730;46.248;6.930;2024-02-21T15:09:01;9.30;99.90
13322;DHT22;6730;46.248;6.930;2024-02-21T15:11:28;9.40;99.90
13322;DHT22;6730;46.248;6.930;2024-02-21T15:13:54;9.60;99.90
13322;DHT22;6730;46.248;6.930;2024-02-21T15:16:19;10.20;99.90
13322;DHT22;6730;46.248;6.930;2024-02-21T15:18:45;10.20;99.90
13322;DHT22;6730;46.248;6.930;2024-02-21T15:21:11;10.00;99.90
13322;DHT22;6730;46.248;6.930;2024-02-21T15:23:39;9.60;99.90
13322;DHT22;6730;46.248;6.930;2024-02-21T15:26:06;9.90;99.90
13322;DHT22;6730;46.248;6.930;2024-02-21T15:28:32;10.10;99.90
13322;DHT22;6730;46.248;6.930;2024-02-21T15:30:57;10.30;99.90
13322;DHT22;6730;46.248;6.930;2024-02-21T15:33:23;10.70;99.90
13322;DHT22;6730;46.248;6.930;2024-02-21T15:35:49;10.80;99.90
13322;DHT22;6730;46.248;6.930;2024-02-21T15:38:16;10.50;99.90
13322;DHT22;6730;46.248;6.930;2024-02-21T15:40:41;10.20;99.90
13322;DHT22;6730;46.248;6.930;2024-02-21T15:43:07;10.40;99.90
13322;DHT22;6730;46.248;6.930;2024-02-21T15:45:33;10.60;99.90
13322;DHT22;6730;46.248;6.930;2024-02-21T15:47:59;10.50;99.90
13322;DHT22;6730;46.248;6.930;2024-02-21T15:50:25;9.60;99.90
13322;DHT22;6730;46.248;6.930;2024-02-21T15:52:54;9.20;99.90
13322;DHT22;6730;46.248;6.930;2024-02-21T15:55:21;8.80;99.90
13322;DHT22;6730;46.248;6.930;2024-02-21T15:57:46;8.50;99.90
13322;DHT22;6730;46.248;6.930;2024-02-21T16:00:12;8.30;99.90
13322;DHT22;6730;46.248;6.930;2024-02-21T16:02:39;8.30;99.90
13322;DHT22;6730;46.248;6.930;2024-02-21T16:05:07;8.40;99.90
13322;DHT22;6730;46.248;6.930;2024-02-21T16:07:37;8.20;99.90
13322;DHT22;6730;46.248;6.930;2024-02-21T16:10:04;8.20;99.90
13322;DHT22;6730;46.248;6.930;2024-02-21T16:12:30;8.30;99.90
13322;DHT22;6730;46.248;6.930;2024-02-21T16:14:55;8.30;99.90
13322;DHT22;6730;46.248;6.930;2024-02-21T16:17:21;8.20;99.90
13322;DHT22;6730;46.248;6.930;2024-02-21T16:19:47;8.30;99.90
13322;DHT22;6730;46.248;6.930;2024-02-21T16:22:15;8.50;99.90
13322;DHT22;6730;46.248;6.930;2024-02-21T16:24:41;9.00;99.90
13322;DHT22;6730;46.248;6.930;2024-02-21T16:27:06;9.30;99.90
13322;DHT22;6730;46.248;6.930;2024-02-21T16:29:37;9.50;99.90
13322;DHT22;6730;46.248;6.930;2024-02-21T16:32:04;9.60;99.90
13322;DHT22;6730;46.248;6.930;2024-02-21T16:34:31;9.60;99.90
13322;DHT22;6730;46.248;6.930;2024-02-21T16:36:57;9.20;99.90